createdAt,value
2023-01-03T00:01:32.429Z,14.67
2023-01-03T00:04:01.734Z,14.65
2023-01-03T00:06:33.911Z,14.63
2023-01-03T00:09:04.772Z,14.60
2023-01-03T00:11:52.496Z,14.57
2023-01-03T00:14:24.822Z,14.57
2023-01-03T00:16:54.903Z,14.53
2023-01-03T00:19:24.729Z,14.56
2023-01-03T00:21:54.650Z,14.56
2023-01-03T00:24:23.550Z,14.53
2023-01-03T00:26:52.303Z,14.57
2023-01-03T00:29:20.472Z,14.60
2023-01-03T00:31:49.453Z,14.61
2023-01-03T00:34:18.091Z,14.63
2023-01-03T00:36:46.477Z,14.65
2023-01-03T00:39:16.358Z,14.68
2023-01-03T00:41:47.220Z,14.64
2023-01-03T00:44:15.699Z,14.68
2023-01-03T00:46:45.508Z,14.75
2023-01-03T00:49:13.593Z,14.77
2023-01-03T00:51:42.819Z,14.77
2023-01-03T00:54:14.067Z,14.81
2023-01-03T00:56:45.306Z,14.81
2023-01-03T00:59:14.625Z,14.80
2023-01-03T01:01:50.687Z,14.81
2023-01-03T01:04:21.529Z,14.79
2023-01-03T01:06:51.280Z,14.77
2023-01-03T01:09:22.214Z,14.75
2023-01-03T01:11:54.810Z,14.79
2023-01-03T01:14:24.773Z,14.77
2023-01-03T01:16:55.040Z,14.79
2023-01-03T01:19:26.728Z,14.79
2023-01-03T01:21:55.189Z,14.83
2023-01-03T01:24:25.019Z,14.85
2023-01-03T01:26:55.060Z,14.82
2023-01-03T01:29:23.858Z,14.84
2023-01-03T01:31:52.199Z,14.84
2023-01-03T01:34:20.382Z,14.85
2023-01-03T01:36:49.325Z,14.83
2023-01-03T01:39:19.778Z,14.59
2023-01-03T01:42:06.879Z,14.64
2023-01-03T01:44:55.373Z,14.73
2023-01-03T01:47:39.357Z,14.63
2023-01-03T01:50:25.619Z,14.60
2023-01-03T01:52:59.033Z,14.69
2023-01-03T01:55:32.640Z,14.59
2023-01-03T01:58:02.440Z,14.75
2023-01-03T02:00:32.178Z,14.74
2023-01-03T02:03:01.153Z,14.74
2023-01-03T02:05:31.487Z,14.60
2023-01-03T02:08:00.300Z,14.68
2023-01-03T02:10:41.660Z,14.71
2023-01-03T02:13:18.443Z,14.67
2023-01-03T02:16:19.998Z,14.54
2023-01-03T02:18:56.405Z,14.59
2023-01-03T02:21:51.158Z,14.65
2023-01-03T02:24:44.591Z,14.52
2023-01-03T02:27:33.232Z,14.54
2023-01-03T02:30:34.338Z,14.41
2023-01-03T02:33:11.367Z,14.49
2023-01-03T02:35:50.233Z,14.39
2023-01-03T02:38:24.881Z,14.42
2023-01-03T02:41:00.119Z,14.39
2023-01-03T02:43:33.327Z,14.43
2023-01-03T02:46:10.731Z,14.47
2023-01-03T02:48:47.013Z,14.54
2023-01-03T02:51:20.180Z,14.35
2023-01-03T02:53:50.977Z,14.45
2023-01-03T02:56:26.281Z,14.54
2023-01-03T02:58:59.769Z,14.55
2023-01-03T03:01:31.686Z,14.58
2023-01-03T03:04:02.331Z,14.61
2023-01-03T03:06:37.394Z,14.61
2023-01-03T03:09:05.737Z,14.60
2023-01-03T03:11:56.576Z,14.57
2023-01-03T03:14:29.873Z,14.52
2023-01-03T03:17:03.879Z,14.46
2023-01-03T03:19:51.398Z,14.21
2023-01-03T03:22:47.020Z,14.20
2023-01-03T03:25:18.079Z,14.32
2023-01-03T03:28:06.427Z,14.21
2023-01-03T03:30:39.422Z,14.23
2023-01-03T03:33:12.467Z,14.24
2023-01-03T03:35:47.449Z,14.32
2023-01-03T03:38:21.321Z,14.33
2023-01-03T03:41:15.478Z,14.19
2023-01-03T03:44:07.602Z,14.27
2023-01-03T03:46:42.819Z,14.30
2023-01-03T03:49:36.339Z,14.27
2023-01-03T03:52:06.354Z,14.24
2023-01-03T03:54:37.672Z,14.21
2023-01-03T03:57:16.478Z,14.13
2023-01-03T03:59:49.952Z,14.09
2023-01-03T04:02:19.998Z,14.01
2023-01-03T04:04:55.081Z,13.96
2023-01-03T04:07:23.459Z,13.97
2023-01-03T04:09:52.268Z,13.98
2023-01-03T04:12:23.434Z,13.90
2023-01-03T04:14:51.861Z,13.83
2023-01-03T04:17:19.858Z,13.84
2023-01-03T04:19:49.284Z,13.89
2023-01-03T04:22:17.807Z,13.86
2023-01-03T04:24:46.218Z,13.85
2023-01-03T04:27:14.479Z,13.82
2023-01-03T04:29:42.703Z,13.84
2023-01-03T04:32:10.945Z,13.71
2023-01-03T04:34:40.891Z,13.76
2023-01-03T04:37:10.733Z,13.75
2023-01-03T04:39:38.884Z,13.70
2023-01-03T04:42:27.746Z,13.81
2023-01-03T04:44:55.117Z,13.78
2023-01-03T04:47:23.344Z,13.78
2023-01-03T04:49:52.057Z,13.81
2023-01-03T04:52:24.244Z,13.79
2023-01-03T04:54:52.271Z,13.76
2023-01-03T04:57:20.639Z,13.78
2023-01-03T04:59:48.778Z,13.72
2023-01-03T05:02:17.139Z,13.81
2023-01-03T05:04:46.124Z,13.81
2023-01-03T05:07:14.352Z,13.74
2023-01-03T05:09:44.580Z,13.82
2023-01-03T05:12:14.985Z,13.81
2023-01-03T05:14:43.393Z,13.78
2023-01-03T05:17:11.893Z,13.73
2023-01-03T05:19:59.503Z,13.67
2023-01-03T05:23:00.629Z,13.60
2023-01-03T05:25:52.841Z,13.54
2023-01-03T05:28:26.669Z,13.47
2023-01-03T05:30:55.120Z,13.36
2023-01-03T05:33:23.351Z,13.34
2023-01-03T05:35:52.103Z,13.27
2023-01-03T05:38:20.890Z,13.20
2023-01-03T05:40:54.563Z,13.12
2023-01-03T05:43:22.894Z,13.07
2023-01-03T05:45:51.975Z,12.98
2023-01-03T05:48:20.936Z,12.85
2023-01-03T05:50:53.700Z,12.77
2023-01-03T05:53:21.887Z,12.70
2023-01-03T05:55:51.712Z,12.62
2023-01-03T05:58:20.187Z,12.56
2023-01-03T06:00:48.631Z,12.51
2023-01-03T06:03:17.068Z,12.49
2023-01-03T06:05:50.057Z,12.52
2023-01-03T06:08:18.868Z,12.45
2023-01-03T06:10:46.876Z,12.48
2023-01-03T06:13:16.457Z,12.54
2023-01-03T06:16:04.722Z,12.54
2023-01-03T06:18:31.748Z,12.63
2023-01-03T06:21:00.122Z,12.62
2023-01-03T06:23:28.501Z,12.57
2023-01-03T06:25:56.665Z,12.60
2023-01-03T06:28:26.585Z,12.59
2023-01-03T06:30:55.442Z,12.60
2023-01-03T06:33:23.551Z,12.57
2023-01-03T06:35:54.198Z,12.50
2023-01-03T06:38:22.357Z,12.51
2023-01-03T06:40:50.864Z,12.51
2023-01-03T06:43:19.067Z,12.30
2023-01-03T06:46:06.344Z,12.54
2023-01-03T06:48:52.295Z,12.59
2023-01-03T06:51:40.443Z,12.75
2023-01-03T06:54:11.487Z,12.70
2023-01-03T06:56:39.598Z,12.84
2023-01-03T06:59:07.644Z,12.89
2023-01-03T07:01:37.621Z,12.85
2023-01-03T07:04:06.174Z,12.82
2023-01-03T07:06:34.323Z,12.79
2023-01-03T07:09:02.833Z,12.65
2023-01-03T07:11:30.931Z,12.63
2023-01-03T07:13:58.502Z,12.58
2023-01-03T07:16:28.323Z,12.56
2023-01-03T07:18:58.009Z,12.51
2023-01-03T07:21:29.185Z,12.44
2023-01-03T07:23:58.501Z,12.38
2023-01-03T07:26:26.754Z,12.32
2023-01-03T07:28:55.089Z,12.27
2023-01-03T07:31:23.112Z,12.22
2023-01-03T07:33:53.066Z,12.16
2023-01-03T07:36:22.790Z,12.05
2023-01-03T07:38:50.794Z,11.96
2023-01-03T07:41:19.282Z,11.86
2023-01-03T07:43:48.821Z,11.84
2023-01-03T07:46:19.855Z,11.77
2023-01-03T07:48:50.491Z,11.83
2023-01-03T07:51:22.689Z,11.85
2023-01-03T07:53:52.458Z,11.86
2023-01-03T07:56:25.887Z,11.88
2023-01-03T07:58:54.534Z,11.92
2023-01-03T08:01:24.476Z,11.94
2023-01-03T08:03:56.931Z,11.99
2023-01-03T08:06:31.071Z,12.03
2023-01-03T08:09:18.018Z,12.03
2023-01-03T08:12:04.079Z,12.07
2023-01-03T08:14:32.652Z,12.04
2023-01-03T08:17:00.699Z,12.00
2023-01-03T08:19:28.939Z,12.05
2023-01-03T08:22:01.725Z,12.10
2023-01-03T08:24:42.078Z,12.14
2023-01-03T08:27:15.239Z,12.17
2023-01-03T08:29:44.118Z,12.23
2023-01-03T08:35:14.143Z,12.36
2023-01-03T08:37:56.125Z,12.40
2023-01-03T08:40:26.924Z,12.45
2023-01-03T08:42:56.142Z,12.53
2023-01-03T08:45:31.895Z,12.65
2023-01-03T08:48:02.870Z,12.72
2023-01-03T08:50:32.315Z,12.82
2023-01-03T08:53:01.983Z,12.90
2023-01-03T08:55:29.965Z,12.95
2023-01-03T08:57:59.803Z,13.03
2023-01-03T09:00:29.294Z,13.10
2023-01-03T09:03:00.809Z,13.14
2023-01-03T09:05:30.271Z,13.23
2023-01-03T09:07:58.894Z,13.29
2023-01-03T09:10:28.176Z,13.22
2023-01-03T09:12:56.564Z,13.37
2023-01-03T09:15:24.809Z,13.44
2023-01-03T09:17:52.778Z,13.42
2023-01-03T09:20:20.996Z,13.53
2023-01-03T09:22:49.018Z,13.58
2023-01-03T09:25:17.392Z,13.71
2023-01-03T09:27:48.508Z,13.79
2023-01-03T09:30:17.993Z,13.68
2023-01-03T09:32:46.589Z,13.93
2023-01-03T09:35:14.658Z,13.95
2023-01-03T09:37:48.500Z,14.09
2023-01-03T09:40:17.696Z,14.21
2023-01-03T09:43:13.685Z,14.23
2023-01-03T09:45:44.312Z,14.09
2023-01-03T09:48:17.107Z,14.04
2023-01-03T09:53:58.433Z,14.02
2023-01-03T09:56:44.458Z,14.16
2023-01-03T09:59:33.832Z,14.15
2023-01-03T10:02:44.632Z,14.32
2023-01-03T10:05:31.798Z,14.34
2023-01-03T10:08:13.792Z,14.61
2023-01-03T10:10:52.449Z,14.65
2023-01-03T10:13:32.708Z,14.68
2023-01-03T10:16:09.552Z,14.70
2023-01-03T10:18:53.866Z,14.84
2023-01-03T10:21:32.490Z,15.05
2023-01-03T10:24:00.769Z,15.02
2023-01-03T10:26:34.237Z,15.10
2023-01-03T10:29:02.637Z,15.03
2023-01-03T10:31:48.120Z,15.14
2023-01-03T10:34:16.097Z,15.29
2023-01-03T10:36:48.012Z,15.40
2023-01-03T10:39:30.393Z,15.27
2023-01-03T10:42:00.482Z,15.08
2023-01-03T10:44:30.247Z,15.44
2023-01-03T10:47:09.864Z,15.19
2023-01-03T10:49:38.047Z,15.33
2023-01-03T10:52:17.737Z,15.51
2023-01-03T10:54:52.839Z,15.57
2023-01-03T10:57:37.275Z,15.40
2023-01-03T11:00:23.105Z,15.39
2023-01-03T11:02:53.410Z,15.40
2023-01-03T11:05:23.881Z,15.42
2023-01-03T11:07:56.348Z,15.54
2023-01-03T11:10:27.332Z,15.45
2023-01-03T11:12:55.604Z,15.65
2023-01-03T11:15:39.106Z,15.55
2023-01-03T11:18:20.640Z,15.62
2023-01-03T11:20:53.430Z,15.38
2023-01-03T11:23:28.044Z,15.34
2023-01-03T11:26:07.088Z,15.48
2023-01-03T11:28:56.225Z,15.37
2023-01-03T11:31:39.135Z,15.15
2023-01-03T11:34:25.469Z,15.13
2023-01-03T11:37:02.370Z,15.35
2023-01-03T11:39:50.178Z,15.38
2023-01-03T11:42:33.341Z,15.51
2023-01-03T11:45:26.562Z,15.55
2023-01-03T11:48:32.261Z,15.70
2023-01-03T11:51:14.569Z,15.84
2023-01-03T11:53:56.745Z,15.66
2023-01-03T11:56:30.045Z,15.67
2023-01-03T11:59:31.473Z,15.71
2023-01-03T12:02:48.426Z,15.88
2023-01-03T12:05:40.730Z,15.76
2023-01-03T12:08:32.620Z,15.98
2023-01-03T12:11:07.362Z,15.92
2023-01-03T12:13:43.403Z,15.90
2023-01-03T12:16:17.370Z,15.79
2023-01-03T12:18:54.281Z,15.87
2023-01-03T12:21:35.592Z,15.90
2023-01-03T12:24:23.560Z,16.01
2023-01-03T12:26:56.484Z,16.07
2023-01-03T12:29:30.564Z,16.18
2023-01-03T12:32:05.059Z,15.76
2023-01-03T12:34:38.744Z,15.86
2023-01-03T12:37:15.711Z,15.82
2023-01-03T12:39:55.172Z,15.55
2023-01-03T12:42:36.457Z,15.79
2023-01-03T12:45:32.886Z,15.69
2023-01-03T12:48:13.392Z,15.77
2023-01-03T12:50:46.024Z,15.90
2023-01-03T12:53:21.678Z,15.98
2023-01-03T12:56:06.737Z,15.90
2023-01-03T12:58:43.875Z,15.82
2023-01-03T13:01:17.941Z,16.18
2023-01-03T13:03:50.425Z,15.89
2023-01-03T13:06:23.152Z,16.06
2023-01-03T13:08:57.580Z,16.12
2023-01-03T13:11:34.580Z,16.03
2023-01-03T13:14:06.994Z,16.03
2023-01-03T13:16:46.692Z,15.69
2023-01-03T13:19:53.598Z,15.71
2023-01-03T13:22:45.189Z,15.97
2023-01-03T13:25:41.649Z,15.78
2023-01-03T13:28:36.417Z,15.68
2023-01-03T13:31:45.849Z,15.87
2023-01-03T13:34:31.488Z,15.76
2023-01-03T13:37:18.208Z,15.78
2023-01-03T13:39:58.272Z,15.65
2023-01-03T13:42:31.095Z,15.58
2023-01-03T13:45:35.337Z,15.53
2023-01-03T13:48:18.389Z,15.40
2023-01-03T13:51:19.169Z,15.38
2023-01-03T13:53:57.512Z,15.40
2023-01-03T13:56:26.961Z,15.27
2023-01-03T13:59:01.643Z,15.30
2023-01-03T14:01:41.696Z,15.25
2023-01-03T14:04:31.894Z,15.22
2023-01-03T14:07:44.111Z,15.21
2023-01-03T14:10:32.134Z,15.18
2023-01-03T14:13:34.978Z,15.09
2023-01-03T14:16:17.897Z,14.99
2023-01-03T14:18:50.552Z,15.01
2023-01-03T14:21:26.346Z,15.00
2023-01-03T14:24:01.104Z,15.03
2023-01-03T14:26:32.657Z,15.04
2023-01-03T14:29:00.858Z,15.05
2023-01-03T14:31:29.824Z,15.03
2023-01-03T14:34:00.195Z,15.02
2023-01-03T14:36:30.198Z,14.99
2023-01-03T14:38:59.816Z,14.95
2023-01-03T14:41:30.862Z,14.88
2023-01-03T14:44:00.687Z,14.86
2023-01-03T14:46:29.945Z,14.81
2023-01-03T14:49:03.439Z,14.73
2023-01-03T14:51:36.709Z,14.64
2023-01-03T14:54:06.147Z,14.57
2023-01-03T14:56:35.265Z,14.51
2023-01-03T14:59:10.798Z,14.46
2023-01-03T15:01:39.597Z,14.36
2023-01-03T15:04:08.516Z,14.24
2023-01-03T15:06:38.029Z,14.15
2023-01-03T15:09:22.270Z,14.07
2023-01-03T15:11:59.335Z,14.00
2023-01-03T15:14:29.922Z,13.84
2023-01-03T15:17:07.108Z,13.74
2023-01-03T15:19:37.259Z,13.67
2023-01-03T15:22:15.167Z,13.59
2023-01-03T15:24:46.323Z,13.50
2023-01-03T15:27:42.578Z,13.44
2023-01-03T15:30:22.435Z,13.38
2023-01-03T15:32:54.058Z,13.31
2023-01-03T15:35:24.592Z,13.27
2023-01-03T15:37:57.975Z,13.21
2023-01-03T15:40:26.565Z,13.17
2023-01-03T15:43:12.472Z,13.16
2023-01-03T15:45:42.718Z,13.12
2023-01-03T15:48:17.852Z,13.04
2023-01-03T15:50:49.694Z,13.00
2023-01-03T15:53:25.711Z,12.90
2023-01-03T15:55:58.038Z,12.76
2023-01-03T15:58:27.111Z,12.63
2023-01-03T16:00:55.888Z,12.58
2023-01-03T16:03:26.809Z,12.52
2023-01-03T16:05:54.893Z,12.51
2023-01-03T16:08:29.380Z,12.51
2023-01-03T16:10:59.391Z,12.46
2023-01-03T16:13:30.931Z,12.45
2023-01-03T16:16:00.432Z,12.41
2023-01-03T16:18:38.255Z,12.39
2023-01-03T16:21:07.334Z,12.35
2023-01-03T16:23:37.330Z,12.32
2023-01-03T16:26:05.641Z,12.27
2023-01-03T16:28:33.749Z,12.22
2023-01-03T16:31:04.632Z,12.17
2023-01-03T16:33:35.842Z,12.09
2023-01-03T16:36:05.548Z,12.00
2023-01-03T16:38:34.702Z,11.97
2023-01-03T16:41:04.097Z,11.95
2023-01-03T16:43:32.626Z,11.97
2023-01-03T16:46:00.918Z,12.00
2023-01-03T16:48:38.063Z,11.98
2023-01-03T16:51:06.994Z,11.94
2023-01-03T16:53:39.543Z,11.95
2023-01-03T16:56:12.678Z,11.93
2023-01-03T16:58:40.919Z,11.94
2023-01-03T17:01:09.604Z,12.00
2023-01-03T17:03:41.826Z,12.02
2023-01-03T17:06:23.693Z,12.15
2023-01-03T17:08:52.262Z,12.26
2023-01-03T17:11:22.569Z,12.38
2023-01-03T17:13:51.180Z,12.50
2023-01-03T17:16:22.799Z,12.59
2023-01-03T17:18:53.528Z,12.65
2023-01-03T17:21:25.909Z,12.74
2023-01-03T17:23:56.568Z,12.79
2023-01-03T17:26:26.497Z,12.88
2023-01-03T17:28:56.137Z,12.95
2023-01-03T17:31:26.469Z,13.05
2023-01-03T17:33:55.878Z,13.07
2023-01-03T17:36:26.893Z,13.14
2023-01-03T17:38:59.915Z,13.18
2023-01-03T17:41:29.734Z,13.22
2023-01-03T17:43:58.070Z,13.26
2023-01-03T17:46:45.507Z,13.23
2023-01-03T17:49:26.913Z,13.29
2023-01-03T17:51:57.886Z,13.26
2023-01-03T17:54:28.864Z,13.18
2023-01-03T17:56:59.915Z,13.19
2023-01-03T17:59:29.047Z,13.19
2023-01-03T18:01:57.768Z,13.21
2023-01-03T18:04:44.142Z,13.23
2023-01-03T18:07:20.822Z,13.23
2023-01-03T18:09:51.009Z,13.19
2023-01-03T18:12:22.578Z,13.24
2023-01-03T18:14:51.373Z,13.26
2023-01-03T18:17:28.253Z,13.25
2023-01-03T18:19:56.717Z,13.27
2023-01-03T18:22:25.328Z,13.27
2023-01-03T18:24:54.808Z,13.32
2023-01-03T18:27:26.988Z,13.29
2023-01-03T18:29:54.986Z,13.32
2023-01-03T18:32:27.735Z,13.34
2023-01-03T18:34:56.578Z,13.30
2023-01-03T18:37:31.276Z,13.33
2023-01-03T18:39:59.919Z,13.32
2023-01-03T18:42:47.637Z,13.33
2023-01-03T18:45:17.823Z,13.31
2023-01-03T18:47:46.391Z,13.34
2023-01-03T18:50:20.241Z,13.30
2023-01-03T18:52:50.730Z,13.32
2023-01-03T18:55:21.495Z,13.31
2023-01-03T18:57:52.210Z,13.30
2023-01-03T19:00:22.557Z,13.29
2023-01-03T19:02:51.498Z,13.27
2023-01-03T19:05:20.208Z,13.27
2023-01-03T19:07:52.740Z,13.26
2023-01-03T19:10:23.299Z,13.26
2023-01-03T19:12:54.170Z,13.26
2023-01-03T19:15:25.431Z,13.22
2023-01-03T19:17:53.618Z,13.25
2023-01-03T19:20:26.781Z,13.26
2023-01-03T19:22:56.930Z,13.20
2023-01-03T19:25:29.826Z,13.15
2023-01-03T19:28:02.653Z,13.15
2023-01-03T19:30:37.607Z,13.13
2023-01-03T19:33:07.561Z,13.11
2023-01-03T19:35:35.638Z,13.06
2023-01-03T19:38:03.951Z,13.04
2023-01-03T19:40:34.846Z,12.99
2023-01-03T19:43:04.609Z,12.95
2023-01-03T19:45:36.458Z,12.88
2023-01-03T19:48:15.850Z,12.85
2023-01-03T19:50:44.532Z,12.78
2023-01-03T19:53:13.532Z,12.74
2023-01-03T19:55:43.680Z,12.68
2023-01-03T19:58:18.509Z,12.62
2023-01-03T20:00:48.419Z,12.53
2023-01-03T20:03:26.990Z,12.49
2023-01-03T20:05:55.540Z,12.40
2023-01-03T20:08:24.265Z,12.37
2023-01-03T20:10:53.654Z,12.29
2023-01-03T20:13:25.386Z,12.25
2023-01-03T20:15:58.015Z,12.19
2023-01-03T20:18:28.443Z,12.15
2023-01-03T20:21:00.132Z,12.08
2023-01-03T20:23:32.621Z,11.99
2023-01-03T20:26:01.211Z,12.00
2023-01-03T20:28:31.204Z,11.95
2023-01-03T20:31:00.907Z,11.90
2023-01-03T20:33:29.950Z,11.83
2023-01-03T20:36:12.588Z,11.82
2023-01-03T20:38:44.753Z,11.76
2023-01-03T20:41:14.486Z,11.72
2023-01-03T20:43:44.759Z,11.70
2023-01-03T20:46:17.210Z,11.63
2023-01-03T20:48:49.962Z,11.62
2023-01-03T20:51:17.961Z,11.56
2023-01-03T20:53:52.310Z,11.49
2023-01-03T20:56:22.430Z,11.44
2023-01-03T20:58:52.773Z,11.35
2023-01-03T21:01:20.885Z,11.28
2023-01-03T21:03:49.030Z,11.25
2023-01-03T21:06:19.601Z,11.19
2023-01-03T21:08:57.023Z,11.12
2023-01-03T21:11:27.819Z,11.08
2023-01-03T21:13:58.758Z,11.07
2023-01-03T21:16:33.614Z,11.05
2023-01-03T21:19:04.003Z,11.03
2023-01-03T21:21:33.221Z,10.98
2023-01-03T21:24:02.073Z,10.94
2023-01-03T21:26:30.164Z,10.90
2023-01-03T21:28:59.935Z,10.83
2023-01-03T21:31:28.244Z,10.78
2023-01-03T21:33:56.757Z,10.72
2023-01-03T21:36:27.919Z,10.68
2023-01-03T21:38:56.834Z,10.61
2023-01-03T21:41:26.837Z,10.60
2023-01-03T21:43:56.746Z,10.63
2023-01-03T21:46:27.460Z,10.58
2023-01-03T21:48:56.590Z,10.56
2023-01-03T21:51:39.302Z,10.58
2023-01-03T21:54:08.364Z,10.53
2023-01-03T21:56:45.387Z,10.54
2023-01-03T21:59:14.395Z,10.57
2023-01-03T22:02:02.785Z,10.55
2023-01-03T22:04:31.512Z,10.55
2023-01-03T22:07:00.898Z,10.49
2023-01-03T22:09:47.705Z,10.47
2023-01-03T22:12:16.564Z,10.45
2023-01-03T22:14:45.028Z,10.39
2023-01-03T22:17:15.346Z,10.38
2023-01-03T22:19:43.861Z,10.33
2023-01-03T22:22:12.083Z,10.29
2023-01-03T22:24:40.188Z,10.27
2023-01-03T22:27:08.876Z,10.23
2023-01-03T22:29:37.076Z,10.20
2023-01-03T22:32:05.545Z,10.19
2023-01-03T22:34:35.269Z,10.18
2023-01-03T22:37:03.302Z,10.19
2023-01-03T22:39:31.461Z,10.20
2023-01-03T22:42:00.022Z,10.20
2023-01-03T22:44:28.089Z,10.23
2023-01-03T22:46:56.130Z,10.24
2023-01-03T22:49:24.838Z,10.24
2023-01-03T22:51:54.249Z,10.25
2023-01-03T22:54:22.517Z,10.31
2023-01-03T22:56:51.309Z,10.29
2023-01-03T22:59:19.306Z,10.30
2023-01-03T23:01:47.930Z,10.28
2023-01-03T23:04:19.188Z,10.26
2023-01-03T23:06:47.768Z,10.29
2023-01-03T23:09:17.227Z,10.28
2023-01-03T23:12:02.993Z,10.29
2023-01-03T23:14:32.490Z,10.30
2023-01-03T23:17:22.005Z,10.28
2023-01-03T23:19:50.164Z,10.30
2023-01-03T23:22:18.790Z,10.27
2023-01-03T23:24:48.356Z,10.22
2023-01-03T23:27:16.565Z,10.25
2023-01-03T23:29:45.542Z,10.26
2023-01-03T23:32:13.829Z,10.30
2023-01-03T23:34:41.980Z,10.33
2023-01-03T23:37:10.370Z,10.32
2023-01-03T23:39:38.977Z,10.34
2023-01-03T23:42:08.457Z,10.35
2023-01-03T23:44:36.699Z,10.30
2023-01-03T23:47:11.079Z,10.30
2023-01-03T23:49:39.855Z,10.30
2023-01-03T23:52:08.184Z,10.35
2023-01-03T23:54:36.473Z,10.36
2023-01-03T23:57:05.959Z,10.39
2023-01-03T23:59:35.398Z,10.38
